createdAt,value
2018-06-12T00:05:03.030Z,98903.60
2018-06-12T00:11:08.755Z,98906.87
2018-06-12T00:17:14.579Z,98905.35
2018-06-12T00:23:20.439Z,98913.34
2018-06-12T00:29:26.221Z,98916.74
2018-06-12T00:35:31.961Z,98921.79
2018-06-12T00:41:37.928Z,98925.25
2018-06-12T00:47:43.601Z,98926.41
2018-06-12T00:53:49.854Z,98924.03
2018-06-12T00:59:56.319Z,98935.19
2018-06-12T01:06:02.052Z,98943.95
2018-06-12T01:12:07.921Z,98942.55
2018-06-12T01:18:13.544Z,98948.46
2018-06-12T01:24:19.209Z,98952.27
2018-06-12T01:30:25.446Z,98955.70
2018-06-12T01:36:31.128Z,98948.94
2018-06-12T01:42:36.776Z,98947.11
2018-06-12T01:48:42.413Z,98952.42
2018-06-12T01:54:48.048Z,98951.81
2018-06-12T02:00:54.249Z,98958.20
2018-06-12T02:06:59.911Z,98953.14
2018-06-12T02:19:44.731Z,98967.54
2018-06-12T02:25:50.461Z,98968.81
2018-06-12T02:31:56.261Z,98974.11
2018-06-12T02:38:01.944Z,98983.42
2018-06-12T02:44:07.600Z,98990.08
2018-06-12T02:50:13.233Z,98994.13
2018-06-12T02:56:18.935Z,98998.21
2018-06-12T03:02:25.681Z,98992.75
2018-06-12T03:08:31.516Z,98994.22
2018-06-12T03:14:37.320Z,98999.45
2018-06-12T03:20:46.747Z,99003.30
2018-06-12T03:26:52.789Z,99002.22
2018-06-12T03:32:58.518Z,99007.90
2018-06-12T03:39:06.397Z,99006.97
2018-06-12T03:45:12.003Z,99003.14
2018-06-12T03:51:17.779Z,99002.66
2018-06-12T03:57:24.482Z,98992.52
2018-06-12T04:03:30.272Z,98999.43
2018-06-12T04:09:35.949Z,99002.66
2018-06-12T04:15:41.783Z,98996.76
2018-06-12T04:21:47.969Z,98997.50
2018-06-12T04:27:53.933Z,99003.51
2018-06-12T04:33:59.683Z,99000.03
2018-06-12T04:40:05.446Z,99001.73
2018-06-12T04:46:11.097Z,99007.03
2018-06-12T04:52:16.855Z,99013.66
2018-06-12T04:58:23.304Z,99019.13
2018-06-12T05:04:28.947Z,99028.32
2018-06-12T05:10:34.593Z,99023.91
2018-06-12T05:16:40.311Z,99031.48
2018-06-12T05:22:45.945Z,99038.41
2018-06-12T05:28:53.089Z,99036.81
2018-06-12T05:34:58.726Z,99035.61
2018-06-12T05:41:04.392Z,99026.97
2018-06-12T05:47:10.028Z,99035.28
2018-06-12T05:53:15.778Z,99033.38
2018-06-12T05:59:21.843Z,99042.22
2018-06-12T06:05:27.499Z,99040.73
2018-06-12T06:11:33.228Z,99053.97
2018-06-12T06:17:39.093Z,99056.16
2018-06-12T06:23:44.891Z,99048.47
2018-06-12T06:29:50.650Z,99054.59
2018-06-12T06:35:56.685Z,99053.81
2018-06-12T06:42:02.415Z,99050.83
2018-06-12T06:48:08.196Z,99055.73
2018-06-12T06:54:14.005Z,99057.08
2018-06-12T07:00:19.779Z,99055.08
2018-06-12T07:06:26.044Z,99056.45
2018-06-12T07:12:31.653Z,99043.53
2018-06-12T07:18:37.364Z,99043.36
2018-06-12T07:24:42.991Z,99041.16
2018-06-12T07:30:48.645Z,99047.25
2018-06-12T07:36:54.768Z,99053.35
2018-06-12T07:43:00.372Z,99052.64
2018-06-12T07:49:06.159Z,99052.80
2018-06-12T07:55:11.866Z,99058.59
2018-06-12T08:01:17.591Z,99054.24
2018-06-12T08:07:23.844Z,99051.98
2018-06-12T08:13:29.613Z,99043.21
2018-06-12T08:19:35.309Z,99051.54
2018-06-12T08:25:40.984Z,99054.83
2018-06-12T08:31:46.660Z,99058.58
2018-06-12T08:37:52.822Z,99049.47
2018-06-12T08:43:58.708Z,99049.83
2018-06-12T08:50:04.485Z,99052.62
2018-06-12T08:56:10.117Z,99047.19
2018-06-12T09:02:15.770Z,99043.77
2018-06-12T09:08:21.400Z,99031.69
2018-06-12T09:14:27.416Z,99041.89
2018-06-12T09:20:33.009Z,99040.14
2018-06-12T09:26:38.629Z,99049.36
2018-06-12T09:32:44.259Z,99056.22
2018-06-12T09:38:50.015Z,99057.59
2018-06-12T09:44:55.835Z,99054.91
2018-06-12T09:51:01.451Z,99057.14
2018-06-12T09:57:07.332Z,99062.16
2018-06-12T10:03:12.940Z,99051.12
2018-06-12T10:09:18.898Z,99057.05
2018-06-12T10:15:24.725Z,99059.74
2018-06-12T10:21:30.382Z,99063.40
2018-06-12T10:27:36.111Z,99063.70
2018-06-12T10:33:41.870Z,99058.69
2018-06-12T10:39:47.578Z,99063.39
2018-06-12T10:45:54.412Z,99045.28
2018-06-12T10:52:00.035Z,99039.15
2018-06-12T10:58:05.660Z,99044.91
2018-06-12T11:04:11.254Z,99042.41
2018-06-12T11:10:17.025Z,99036.77
2018-06-12T11:16:23.973Z,99041.47
2018-06-12T11:22:29.668Z,99044.70
2018-06-12T11:28:35.320Z,99049.86
2018-06-12T11:34:41.265Z,99045.59
2018-06-12T11:40:46.856Z,99048.92
2018-06-12T11:46:53.108Z,99045.34
2018-06-12T11:52:58.811Z,99049.05
2018-06-12T11:59:04.630Z,99044.12
2018-06-12T12:05:10.456Z,99040.39
2018-06-12T12:11:16.235Z,99040.66
2018-06-12T12:17:22.467Z,99046.38
2018-06-12T12:23:28.389Z,99043.51
2018-06-12T12:29:33.992Z,99037.01
2018-06-12T12:35:39.604Z,99032.85
2018-06-12T12:41:45.289Z,99032.47
2018-06-12T12:47:51.129Z,99033.39
2018-06-12T12:53:56.914Z,99034.22
2018-06-12T13:00:02.536Z,99029.84
2018-06-12T13:06:08.319Z,99030.93
2018-06-12T13:12:13.969Z,99031.97
2018-06-12T13:18:19.691Z,99026.77
2018-06-12T13:24:25.860Z,99017.28
2018-06-12T13:30:31.596Z,99020.16
2018-06-12T13:36:37.377Z,99013.20
2018-06-12T13:42:43.004Z,99007.84
2018-06-12T13:48:48.689Z,99001.66
2018-06-12T13:54:54.977Z,98999.31
2018-06-12T14:01:01.466Z,98999.30
2018-06-12T14:07:07.089Z,98995.80
2018-06-12T14:13:12.715Z,99002.28
2018-06-12T14:19:18.353Z,98996.81
2018-06-12T14:25:24.989Z,98991.64
2018-06-12T14:31:31.127Z,98988.69
2018-06-12T14:37:36.878Z,98988.17
2018-06-12T14:43:42.625Z,98981.67
2018-06-12T14:49:48.589Z,98980.03
2018-06-12T14:55:55.667Z,98987.20
2018-06-12T15:02:01.349Z,98982.23
2018-06-12T15:08:07.051Z,98982.22
2018-06-12T15:14:12.858Z,98988.81
2018-06-12T15:20:18.568Z,98983.52
2018-06-12T15:26:25.319Z,98983.56
2018-06-12T15:32:30.948Z,98977.56
2018-06-12T15:38:36.840Z,98988.47
2018-06-12T15:44:42.569Z,98974.33
2018-06-12T15:50:48.329Z,98966.39
2018-06-12T15:56:54.457Z,98960.38
2018-06-12T16:03:00.175Z,98968.00
2018-06-12T16:09:12.494Z,98958.11
2018-06-12T16:15:18.129Z,98969.55
2018-06-12T16:21:24.700Z,98969.12
2018-06-12T16:27:30.452Z,98963.39
2018-06-12T16:33:36.147Z,98965.04
2018-06-12T16:39:41.765Z,98960.41
2018-06-12T16:45:47.341Z,98958.55
2018-06-12T16:51:53.860Z,98956.64
2018-06-12T16:57:59.522Z,98963.67
2018-06-12T17:04:05.214Z,98962.58
2018-06-12T17:10:11.034Z,98953.61
2018-06-12T17:16:16.698Z,98949.78
2018-06-12T17:22:23.013Z,98945.95
2018-06-12T17:28:28.790Z,98951.81
2018-06-12T17:34:34.810Z,98948.77
2018-06-12T17:40:40.463Z,98956.45
2018-06-12T17:46:46.162Z,98947.42
2018-06-12T17:52:52.393Z,98945.41
2018-06-12T17:58:58.096Z,98947.45
2018-06-12T18:05:03.800Z,98946.01
2018-06-12T18:11:10.041Z,98946.97
2018-06-12T18:17:15.817Z,98957.30
2018-06-12T18:23:21.846Z,98955.27
2018-06-12T18:29:27.498Z,98959.00
2018-06-12T18:35:33.276Z,98954.34
2018-06-12T18:41:39.005Z,98950.81
2018-06-12T18:47:45.065Z,98956.59
2018-06-12T18:53:50.732Z,98966.09
2018-06-12T18:59:56.577Z,98973.64
2018-06-12T19:06:02.396Z,98975.09
2018-06-12T19:12:08.090Z,98979.27
2018-06-12T19:18:13.916Z,98978.30
2018-06-12T19:24:20.141Z,98986.69
2018-06-12T19:30:26.102Z,98986.91
2018-06-12T19:36:31.723Z,99003.89
2018-06-12T19:42:37.441Z,99006.75
2018-06-12T19:48:43.077Z,99005.28
2018-06-12T19:54:49.194Z,98999.71
2018-06-12T20:00:55.797Z,99004.29
2018-06-12T20:07:01.458Z,99009.16
2018-06-12T20:13:07.296Z,99015.67
2018-06-12T20:19:13.022Z,99019.56
2018-06-12T20:25:19.872Z,99027.81
2018-06-12T20:31:26.372Z,99035.39
2018-06-12T20:37:32.093Z,99042.48
2018-06-12T20:43:37.845Z,99056.36
2018-06-12T20:49:43.640Z,99065.20
2018-06-12T20:55:49.427Z,99066.22
2018-06-12T21:01:56.335Z,99073.70
2018-06-12T21:08:02.114Z,99077.00
2018-06-12T21:14:07.803Z,99075.87
2018-06-12T21:20:13.563Z,99083.88
2018-06-12T21:26:20.089Z,99084.16
2018-06-12T21:32:25.785Z,99086.01
2018-06-12T21:38:31.452Z,99089.48
2018-06-12T21:44:37.233Z,99097.30
2018-06-12T21:50:42.872Z,99093.69
2018-06-12T21:56:48.551Z,99094.19
2018-06-12T22:02:54.680Z,99094.58
2018-06-12T22:09:00.345Z,99096.47
2018-06-12T22:15:06.038Z,99093.59
2018-06-12T22:21:12.128Z,99082.66
2018-06-12T22:27:17.802Z,99083.23
2018-06-12T22:33:23.736Z,99091.14
2018-06-12T22:39:29.408Z,99088.30
2018-06-12T22:45:35.103Z,99092.59
2018-06-12T22:51:40.776Z,99089.70
2018-06-12T22:57:46.526Z,99095.98
2018-06-12T23:03:54.215Z,99097.70
2018-06-12T23:09:59.916Z,99099.72
2018-06-12T23:16:05.616Z,99101.64
2018-06-12T23:22:11.548Z,99106.12
2018-06-12T23:28:17.236Z,99106.52
2018-06-12T23:34:25.210Z,99107.44
2018-06-12T23:40:31.015Z,99103.70
2018-06-12T23:46:36.840Z,99093.00
2018-06-12T23:52:42.866Z,99106.66
2018-06-12T23:58:48.808Z,99104.84
